sensor_id;sensor_type;location;lat;lon;timestamp;P1;durP1;ratioP1;P2;durP2;ratioP2
21780;SDS011;52576;53.614;9.894;2023-04-16T00:00:36;28.92;;;17.75;;
21780;SDS011;52576;53.614;9.894;2023-04-16T00:02:41;29.80;;;18.33;;
21780;SDS011;52576;53.614;9.894;2023-04-16T00:04:45;31.83;;;18.17;;
21780;SDS011;52576;53.614;9.894;2023-04-16T00:06:48;30.70;;;18.92;;
21780;SDS011;52576;53.614;9.894;2023-04-16T00:08:52;29.95;;;18.50;;
21780;SDS011;52576;53.614;9.894;2023-04-16T00:10:55;29.40;;;17.95;;
21780;SDS011;52576;53.614;9.894;2023-04-16T00:12:59;27.60;;;18.23;;
21780;SDS011;52576;53.614;9.894;2023-04-16T00:15:03;30.92;;;18.77;;
21780;SDS011;52576;53.614;9.894;2023-04-16T00:17:06;31.00;;;18.65;;
21780;SDS011;52576;53.614;9.894;2023-04-16T00:19:11;29.65;;;17.75;;
21780;SDS011;52576;53.614;9.894;2023-04-16T00:21:15;30.88;;;18.92;;
21780;SDS011;52576;53.614;9.894;2023-04-16T00:23:18;29.83;;;19.23;;
21780;SDS011;52576;53.614;9.894;2023-04-16T00:25:22;26.92;;;18.10;;
21780;SDS011;52576;53.614;9.894;2023-04-16T00:27:26;29.48;;;18.40;;
21780;SDS011;52576;53.614;9.894;2023-04-16T00:29:29;27.80;;;18.38;;
21780;SDS011;52576;53.614;9.894;2023-04-16T00:31:35;31.17;;;18.55;;
21780;SDS011;52576;53.614;9.894;2023-04-16T00:33:39;32.53;;;17.95;;
21780;SDS011;52576;53.614;9.894;2023-04-16T00:35:45;30.15;;;18.80;;
21780;SDS011;52576;53.614;9.894;2023-04-16T00:37:49;36.25;;;19.20;;
21780;SDS011;52576;53.614;9.894;2023-04-16T00:39:52;33.60;;;18.90;;
21780;SDS011;52576;53.614;9.894;2023-04-16T00:41:56;27.65;;;17.90;;
21780;SDS011;52576;53.614;9.894;2023-04-16T00:43:59;27.50;;;18.48;;
21780;SDS011;52576;53.614;9.894;2023-04-16T00:46:03;29.85;;;18.23;;
21780;SDS011;52576;53.614;9.894;2023-04-16T00:48:08;30.65;;;18.45;;
21780;SDS011;52576;53.614;9.894;2023-04-16T00:50:11;36.05;;;19.42;;
21780;SDS011;52576;53.614;9.894;2023-04-16T00:52:17;32.92;;;18.25;;
21780;SDS011;52576;53.614;9.894;2023-04-16T00:54:21;30.40;;;18.30;;
21780;SDS011;52576;53.614;9.894;2023-04-16T00:56:25;28.92;;;18.20;;
21780;SDS011;52576;53.614;9.894;2023-04-16T00:58:28;30.67;;;18.05;;
21780;SDS011;52576;53.614;9.894;2023-04-16T01:00:32;29.55;;;18.98;;
21780;SDS011;52576;53.614;9.894;2023-04-16T01:02:36;28.42;;;17.92;;
21780;SDS011;52576;53.614;9.894;2023-04-16T01:04:40;29.45;;;17.65;;
21780;SDS011;52576;53.614;9.894;2023-04-16T01:06:44;27.58;;;17.65;;
21780;SDS011;52576;53.614;9.894;2023-04-16T01:08:49;30.73;;;18.90;;
21780;SDS011;52576;53.614;9.894;2023-04-16T01:10:53;28.63;;;17.42;;
21780;SDS011;52576;53.614;9.894;2023-04-16T01:12:57;24.77;;;17.80;;
21780;SDS011;52576;53.614;9.894;2023-04-16T01:15:00;29.95;;;17.48;;
21780;SDS011;52576;53.614;9.894;2023-04-16T01:17:04;27.55;;;18.10;;
21780;SDS011;52576;53.614;9.894;2023-04-16T01:19:07;27.60;;;17.48;;
21780;SDS011;52576;53.614;9.894;2023-04-16T01:21:13;31.65;;;18.00;;
21780;SDS011;52576;53.614;9.894;2023-04-16T01:23:16;25.02;;;17.65;;
21780;SDS011;52576;53.614;9.894;2023-04-16T01:25:20;26.67;;;17.38;;
21780;SDS011;52576;53.614;9.894;2023-04-16T01:27:24;27.90;;;17.13;;
21780;SDS011;52576;53.614;9.894;2023-04-16T01:29:27;25.58;;;16.67;;
21780;SDS011;52576;53.614;9.894;2023-04-16T01:31:32;26.17;;;17.73;;
21780;SDS011;52576;53.614;9.894;2023-04-16T01:33:47;28.25;;;17.83;;
21780;SDS011;52576;53.614;9.894;2023-04-16T01:35:51;25.85;;;16.75;;
21780;SDS011;52576;53.614;9.894;2023-04-16T01:37:56;29.10;;;17.00;;
21780;SDS011;52576;53.614;9.894;2023-04-16T01:39:59;23.80;;;16.67;;
21780;SDS011;52576;53.614;9.894;2023-04-16T01:42:03;26.23;;;17.48;;
21780;SDS011;52576;53.614;9.894;2023-04-16T01:44:06;26.58;;;17.08;;
21780;SDS011;52576;53.614;9.894;2023-04-16T01:46:11;25.45;;;17.02;;
21780;SDS011;52576;53.614;9.894;2023-04-16T01:48:17;26.83;;;16.88;;
21780;SDS011;52576;53.614;9.894;2023-04-16T01:50:21;30.35;;;18.08;;
21780;SDS011;52576;53.614;9.894;2023-04-16T01:52:25;27.73;;;17.40;;
21780;SDS011;52576;53.614;9.894;2023-04-16T01:54:32;25.48;;;17.05;;
21780;SDS011;52576;53.614;9.894;2023-04-16T01:56:35;27.17;;;17.88;;
21780;SDS011;52576;53.614;9.894;2023-04-16T01:58:39;22.73;;;16.33;;
21780;SDS011;52576;53.614;9.894;2023-04-16T02:00:43;28.13;;;16.42;;
21780;SDS011;52576;53.614;9.894;2023-04-16T02:02:47;26.50;;;17.38;;
21780;SDS011;52576;53.614;9.894;2023-04-16T02:04:59;24.88;;;16.42;;
21780;SDS011;52576;53.614;9.894;2023-04-16T02:07:02;24.25;;;17.05;;
21780;SDS011;52576;53.614;9.894;2023-04-16T02:09:06;28.05;;;17.98;;
21780;SDS011;52576;53.614;9.894;2023-04-16T02:11:12;25.48;;;17.73;;
21780;SDS011;52576;53.614;9.894;2023-04-16T02:13:16;27.15;;;17.98;;
21780;SDS011;52576;53.614;9.894;2023-04-16T02:15:21;28.55;;;16.95;;
21780;SDS011;52576;53.614;9.894;2023-04-16T02:17:26;26.23;;;17.60;;
21780;SDS011;52576;53.614;9.894;2023-04-16T02:19:43;26.50;;;17.38;;
21780;SDS011;52576;53.614;9.894;2023-04-16T02:21:47;28.73;;;18.20;;
21780;SDS011;52576;53.614;9.894;2023-04-16T02:23:50;25.80;;;17.38;;
21780;SDS011;52576;53.614;9.894;2023-04-16T02:26:01;27.63;;;17.77;;
21780;SDS011;52576;53.614;9.894;2023-04-16T02:28:07;28.77;;;18.40;;
21780;SDS011;52576;53.614;9.894;2023-04-16T02:30:14;28.73;;;17.83;;
21780;SDS011;52576;53.614;9.894;2023-04-16T02:32:18;29.42;;;19.65;;
21780;SDS011;52576;53.614;9.894;2023-04-16T02:34:23;26.27;;;18.77;;
21780;SDS011;52576;53.614;9.894;2023-04-16T02:36:26;28.92;;;18.60;;
21780;SDS011;52576;53.614;9.894;2023-04-16T02:38:30;27.92;;;18.83;;
21780;SDS011;52576;53.614;9.894;2023-04-16T02:40:34;28.33;;;18.98;;
21780;SDS011;52576;53.614;9.894;2023-04-16T02:42:37;28.70;;;18.42;;
21780;SDS011;52576;53.614;9.894;2023-04-16T02:44:43;28.33;;;19.88;;
21780;SDS011;52576;53.614;9.894;2023-04-16T02:46:46;31.75;;;19.80;;
21780;SDS011;52576;53.614;9.894;2023-04-16T02:48:50;32.17;;;19.60;;
21780;SDS011;52576;53.614;9.894;2023-04-16T02:50:53;30.67;;;19.65;;
21780;SDS011;52576;53.614;9.894;2023-04-16T02:52:57;30.70;;;19.95;;
21780;SDS011;52576;53.614;9.894;2023-04-16T02:55:00;31.55;;;19.90;;
21780;SDS011;52576;53.614;9.894;2023-04-16T02:57:04;32.55;;;20.45;;
21780;SDS011;52576;53.614;9.894;2023-04-16T02:59:08;31.63;;;20.45;;
21780;SDS011;52576;53.614;9.894;2023-04-16T03:01:13;29.92;;;19.42;;
21780;SDS011;52576;53.614;9.894;2023-04-16T03:03:17;29.95;;;20.27;;
21780;SDS011;52576;53.614;9.894;2023-04-16T03:05:21;28.77;;;19.75;;
21780;SDS011;52576;53.614;9.894;2023-04-16T03:07:24;32.55;;;21.05;;
21780;SDS011;52576;53.614;9.894;2023-04-16T03:09:28;32.53;;;20.05;;
21780;SDS011;52576;53.614;9.894;2023-04-16T03:11:32;31.80;;;19.88;;
21780;SDS011;52576;53.614;9.894;2023-04-16T03:13:36;28.75;;;19.75;;
21780;SDS011;52576;53.614;9.894;2023-04-16T03:15:39;33.40;;;19.48;;
21780;SDS011;52576;53.614;9.894;2023-04-16T03:17:44;31.27;;;19.85;;
21780;SDS011;52576;53.614;9.894;2023-04-16T03:19:48;31.02;;;19.92;;
21780;SDS011;52576;53.614;9.894;2023-04-16T03:21:53;32.00;;;20.52;;
21780;SDS011;52576;53.614;9.894;2023-04-16T03:23:56;30.20;;;19.77;;
21780;SDS011;52576;53.614;9.894;2023-04-16T03:26:00;31.67;;;19.88;;
21780;SDS011;52576;53.614;9.894;2023-04-16T03:28:03;28.75;;;19.10;;
21780;SDS011;52576;53.614;9.894;2023-04-16T03:30:07;27.92;;;19.27;;
21780;SDS011;52576;53.614;9.894;2023-04-16T03:32:14;29.23;;;18.65;;
21780;SDS011;52576;53.614;9.894;2023-04-16T03:34:23;27.63;;;18.90;;
21780;SDS011;52576;53.614;9.894;2023-04-16T03:36:27;32.00;;;18.90;;
21780;SDS011;52576;53.614;9.894;2023-04-16T03:38:31;30.30;;;19.23;;
21780;SDS011;52576;53.614;9.894;2023-04-16T03:40:35;29.50;;;19.98;;
21780;SDS011;52576;53.614;9.894;2023-04-16T03:42:38;28.40;;;19.13;;
21780;SDS011;52576;53.614;9.894;2023-04-16T03:44:42;31.77;;;20.17;;
21780;SDS011;52576;53.614;9.894;2023-04-16T03:46:46;30.55;;;19.27;;
21780;SDS011;52576;53.614;9.894;2023-04-16T03:48:49;31.70;;;19.63;;
21780;SDS011;52576;53.614;9.894;2023-04-16T03:50:54;30.02;;;19.35;;
21780;SDS011;52576;53.614;9.894;2023-04-16T03:52:58;34.45;;;19.45;;
21780;SDS011;52576;53.614;9.894;2023-04-16T03:55:02;30.85;;;19.35;;
21780;SDS011;52576;53.614;9.894;2023-04-16T03:57:06;32.83;;;19.98;;
21780;SDS011;52576;53.614;9.894;2023-04-16T03:59:10;33.33;;;20.25;;
21780;SDS011;52576;53.614;9.894;2023-04-16T04:01:13;28.88;;;19.67;;
21780;SDS011;52576;53.614;9.894;2023-04-16T04:03:17;28.02;;;19.60;;
21780;SDS011;52576;53.614;9.894;2023-04-16T04:05:22;27.90;;;19.20;;
21780;SDS011;52576;53.614;9.894;2023-04-16T04:07:28;30.05;;;19.38;;
21780;SDS011;52576;53.614;9.894;2023-04-16T04:09:31;30.45;;;19.33;;
21780;SDS011;52576;53.614;9.894;2023-04-16T04:11:36;30.75;;;19.52;;
21780;SDS011;52576;53.614;9.894;2023-04-16T04:13:39;29.52;;;19.80;;
21780;SDS011;52576;53.614;9.894;2023-04-16T04:15:43;32.03;;;19.88;;
21780;SDS011;52576;53.614;9.894;2023-04-16T04:17:46;32.58;;;19.80;;
21780;SDS011;52576;53.614;9.894;2023-04-16T04:19:51;28.80;;;20.17;;
21780;SDS011;52576;53.614;9.894;2023-04-16T04:22:00;32.00;;;18.67;;
21780;SDS011;52576;53.614;9.894;2023-04-16T04:24:05;29.83;;;19.02;;
21780;SDS011;52576;53.614;9.894;2023-04-16T04:26:09;30.08;;;19.83;;
21780;SDS011;52576;53.614;9.894;2023-04-16T04:28:14;29.15;;;18.42;;
21780;SDS011;52576;53.614;9.894;2023-04-16T04:30:17;29.73;;;19.30;;
21780;SDS011;52576;53.614;9.894;2023-04-16T04:32:21;27.65;;;19.08;;
21780;SDS011;52576;53.614;9.894;2023-04-16T04:34:24;27.00;;;18.67;;
21780;SDS011;52576;53.614;9.894;2023-04-16T04:36:30;29.75;;;19.25;;
21780;SDS011;52576;53.614;9.894;2023-04-16T04:38:35;27.02;;;19.02;;
21780;SDS011;52576;53.614;9.894;2023-04-16T04:40:39;27.25;;;18.42;;
21780;SDS011;52576;53.614;9.894;2023-04-16T04:42:43;28.23;;;18.40;;
21780;SDS011;52576;53.614;9.894;2023-04-16T04:44:46;28.30;;;18.73;;
21780;SDS011;52576;53.614;9.894;2023-04-16T04:46:50;28.15;;;17.95;;
21780;SDS011;52576;53.614;9.894;2023-04-16T04:48:53;29.17;;;18.30;;
21780;SDS011;52576;53.614;9.894;2023-04-16T04:50:57;29.77;;;19.48;;
21780;SDS011;52576;53.614;9.894;2023-04-16T04:53:01;31.50;;;19.30;;
21780;SDS011;52576;53.614;9.894;2023-04-16T04:55:11;31.63;;;19.42;;
21780;SDS011;52576;53.614;9.894;2023-04-16T04:57:18;30.55;;;19.00;;
21780;SDS011;52576;53.614;9.894;2023-04-16T04:59:24;27.10;;;19.00;;
21780;SDS011;52576;53.614;9.894;2023-04-16T05:01:28;26.85;;;18.67;;
21780;SDS011;52576;53.614;9.894;2023-04-16T05:03:32;37.10;;;18.98;;
21780;SDS011;52576;53.614;9.894;2023-04-16T05:05:35;29.13;;;18.77;;
21780;SDS011;52576;53.614;9.894;2023-04-16T05:07:39;31.13;;;19.35;;
21780;SDS011;52576;53.614;9.894;2023-04-16T05:09:42;30.90;;;19.25;;
21780;SDS011;52576;53.614;9.894;2023-04-16T05:11:46;28.48;;;19.08;;
21780;SDS011;52576;53.614;9.894;2023-04-16T05:13:51;29.23;;;18.42;;
21780;SDS011;52576;53.614;9.894;2023-04-16T05:15:54;29.17;;;18.88;;
21780;SDS011;52576;53.614;9.894;2023-04-16T05:17:58;42.72;;;18.65;;
21780;SDS011;52576;53.614;9.894;2023-04-16T05:20:01;30.90;;;18.67;;
21780;SDS011;52576;53.614;9.894;2023-04-16T05:22:05;29.38;;;19.17;;
21780;SDS011;52576;53.614;9.894;2023-04-16T05:24:08;30.58;;;19.77;;
21780;SDS011;52576;53.614;9.894;2023-04-16T05:26:15;28.33;;;19.80;;
21780;SDS011;52576;53.614;9.894;2023-04-16T05:28:18;29.15;;;19.58;;
21780;SDS011;52576;53.614;9.894;2023-04-16T05:30:23;28.70;;;19.25;;
21780;SDS011;52576;53.614;9.894;2023-04-16T05:32:27;29.35;;;18.70;;
21780;SDS011;52576;53.614;9.894;2023-04-16T05:34:30;29.27;;;19.15;;
21780;SDS011;52576;53.614;9.894;2023-04-16T05:36:34;31.20;;;19.48;;
21780;SDS011;52576;53.614;9.894;2023-04-16T05:38:37;32.58;;;19.98;;
21780;SDS011;52576;53.614;9.894;2023-04-16T05:40:41;29.55;;;19.48;;
21780;SDS011;52576;53.614;9.894;2023-04-16T05:42:45;26.60;;;18.98;;
21780;SDS011;52576;53.614;9.894;2023-04-16T05:44:49;28.77;;;19.15;;
21780;SDS011;52576;53.614;9.894;2023-04-16T05:46:54;30.92;;;19.40;;
21780;SDS011;52576;53.614;9.894;2023-04-16T05:48:57;27.98;;;19.42;;
21780;SDS011;52576;53.614;9.894;2023-04-16T05:51:01;29.30;;;18.73;;
21780;SDS011;52576;53.614;9.894;2023-04-16T05:53:06;29.85;;;19.85;;
21780;SDS011;52576;53.614;9.894;2023-04-16T05:55:10;28.20;;;19.60;;
21780;SDS011;52576;53.614;9.894;2023-04-16T05:57:13;32.45;;;20.27;;
21780;SDS011;52576;53.614;9.894;2023-04-16T05:59:17;31.48;;;19.38;;
21780;SDS011;52576;53.614;9.894;2023-04-16T06:01:21;29.73;;;19.35;;
21780;SDS011;52576;53.614;9.894;2023-04-16T06:03:26;30.67;;;19.65;;
21780;SDS011;52576;53.614;9.894;2023-04-16T06:05:29;33.05;;;19.85;;
21780;SDS011;52576;53.614;9.894;2023-04-16T06:07:33;28.55;;;19.17;;
21780;SDS011;52576;53.614;9.894;2023-04-16T06:09:36;26.88;;;18.65;;
21780;SDS011;52576;53.614;9.894;2023-04-16T06:11:40;31.35;;;19.60;;
21780;SDS011;52576;53.614;9.894;2023-04-16T06:13:44;32.42;;;19.45;;
21780;SDS011;52576;53.614;9.894;2023-04-16T06:15:47;29.10;;;18.50;;
21780;SDS011;52576;53.614;9.894;2023-04-16T06:17:51;27.48;;;18.15;;
21780;SDS011;52576;53.614;9.894;2023-04-16T06:19:55;31.27;;;19.52;;
21780;SDS011;52576;53.614;9.894;2023-04-16T06:21:59;29.35;;;19.08;;
21780;SDS011;52576;53.614;9.894;2023-04-16T06:24:03;28.45;;;19.67;;
21780;SDS011;52576;53.614;9.894;2023-04-16T06:26:06;27.90;;;19.30;;
21780;SDS011;52576;53.614;9.894;2023-04-16T06:28:10;29.58;;;18.75;;
21780;SDS011;52576;53.614;9.894;2023-04-16T06:30:13;29.73;;;18.70;;
21780;SDS011;52576;53.614;9.894;2023-04-16T06:32:20;29.75;;;19.08;;
21780;SDS011;52576;53.614;9.894;2023-04-16T06:34:24;27.35;;;18.70;;
21780;SDS011;52576;53.614;9.894;2023-04-16T06:36:29;30.52;;;19.05;;
21780;SDS011;52576;53.614;9.894;2023-04-16T06:38:33;27.88;;;18.35;;
21780;SDS011;52576;53.614;9.894;2023-04-16T06:40:38;29.58;;;18.27;;
21780;SDS011;52576;53.614;9.894;2023-04-16T06:42:42;29.33;;;18.65;;
21780;SDS011;52576;53.614;9.894;2023-04-16T06:44:46;30.30;;;18.52;;
21780;SDS011;52576;53.614;9.894;2023-04-16T06:46:50;28.02;;;18.13;;
21780;SDS011;52576;53.614;9.894;2023-04-16T06:48:53;27.33;;;17.98;;
21780;SDS011;52576;53.614;9.894;2023-04-16T06:50:57;29.65;;;18.58;;
21780;SDS011;52576;53.614;9.894;2023-04-16T06:53:02;27.63;;;17.92;;
21780;SDS011;52576;53.614;9.894;2023-04-16T06:55:05;26.35;;;19.15;;
21780;SDS011;52576;53.614;9.894;2023-04-16T06:57:10;27.88;;;18.02;;
21780;SDS011;52576;53.614;9.894;2023-04-16T06:59:14;28.98;;;18.45;;
21780;SDS011;52576;53.614;9.894;2023-04-16T07:01:17;28.00;;;18.27;;
21780;SDS011;52576;53.614;9.894;2023-04-16T07:03:21;31.13;;;18.85;;
21780;SDS011;52576;53.614;9.894;2023-04-16T07:05:25;29.67;;;18.55;;
21780;SDS011;52576;53.614;9.894;2023-04-16T07:07:28;29.80;;;18.85;;
21780;SDS011;52576;53.614;9.894;2023-04-16T07:09:34;27.80;;;17.58;;
21780;SDS011;52576;53.614;9.894;2023-04-16T07:11:37;26.45;;;17.85;;
21780;SDS011;52576;53.614;9.894;2023-04-16T07:13:41;26.60;;;16.92;;
21780;SDS011;52576;53.614;9.894;2023-04-16T07:15:45;28.08;;;17.45;;
21780;SDS011;52576;53.614;9.894;2023-04-16T07:17:48;30.15;;;17.35;;
21780;SDS011;52576;53.614;9.894;2023-04-16T07:19:52;27.20;;;16.95;;
21780;SDS011;52576;53.614;9.894;2023-04-16T07:21:56;27.90;;;17.58;;
21780;SDS011;52576;53.614;9.894;2023-04-16T07:23:59;28.83;;;16.58;;
21780;SDS011;52576;53.614;9.894;2023-04-16T07:26:04;25.40;;;17.38;;
21780;SDS011;52576;53.614;9.894;2023-04-16T07:28:08;25.63;;;17.13;;
21780;SDS011;52576;53.614;9.894;2023-04-16T07:30:11;25.83;;;16.70;;
21780;SDS011;52576;53.614;9.894;2023-04-16T07:32:15;25.92;;;17.30;;
21780;SDS011;52576;53.614;9.894;2023-04-16T07:34:20;25.45;;;17.52;;
21780;SDS011;52576;53.614;9.894;2023-04-16T07:36:25;24.65;;;16.65;;
21780;SDS011;52576;53.614;9.894;2023-04-16T07:38:30;31.45;;;16.85;;
21780;SDS011;52576;53.614;9.894;2023-04-16T07:40:35;25.50;;;17.77;;
21780;SDS011;52576;53.614;9.894;2023-04-16T07:42:40;28.25;;;17.17;;
21780;SDS011;52576;53.614;9.894;2023-04-16T07:44:44;25.00;;;16.35;;
21780;SDS011;52576;53.614;9.894;2023-04-16T07:46:48;22.58;;;16.10;;
21780;SDS011;52576;53.614;9.894;2023-04-16T07:48:51;27.52;;;16.17;;
21780;SDS011;52576;53.614;9.894;2023-04-16T07:50:55;24.05;;;16.27;;
21780;SDS011;52576;53.614;9.894;2023-04-16T07:52:58;22.95;;;15.93;;
21780;SDS011;52576;53.614;9.894;2023-04-16T07:55:02;27.15;;;16.45;;
21780;SDS011;52576;53.614;9.894;2023-04-16T07:57:06;26.75;;;15.68;;
21780;SDS011;52576;53.614;9.894;2023-04-16T07:59:21;24.95;;;15.85;;
21780;SDS011;52576;53.614;9.894;2023-04-16T08:01:25;28.35;;;16.98;;
21780;SDS011;52576;53.614;9.894;2023-04-16T08:03:29;24.75;;;15.75;;
21780;SDS011;52576;53.614;9.894;2023-04-16T08:05:34;24.33;;;15.93;;
21780;SDS011;52576;53.614;9.894;2023-04-16T08:07:38;24.17;;;15.85;;
21780;SDS011;52576;53.614;9.894;2023-04-16T08:09:49;29.00;;;15.95;;
21780;SDS011;52576;53.614;9.894;2023-04-16T08:11:54;22.88;;;15.70;;
21780;SDS011;52576;53.614;9.894;2023-04-16T08:13:58;23.30;;;15.57;;
21780;SDS011;52576;53.614;9.894;2023-04-16T08:16:03;23.88;;;15.27;;
21780;SDS011;52576;53.614;9.894;2023-04-16T08:18:08;21.27;;;15.00;;
21780;SDS011;52576;53.614;9.894;2023-04-16T08:20:16;24.65;;;15.40;;
21780;SDS011;52576;53.614;9.894;2023-04-16T08:22:22;22.15;;;14.13;;
21780;SDS011;52576;53.614;9.894;2023-04-16T08:24:27;22.00;;;13.55;;
21780;SDS011;52576;53.614;9.894;2023-04-16T08:26:30;23.20;;;14.15;;
21780;SDS011;52576;53.614;9.894;2023-04-16T08:28:33;21.35;;;14.27;;
21780;SDS011;52576;53.614;9.894;2023-04-16T08:30:37;22.75;;;14.15;;
21780;SDS011;52576;53.614;9.894;2023-04-16T08:32:42;20.83;;;13.27;;
21780;SDS011;52576;53.614;9.894;2023-04-16T08:34:48;19.70;;;13.38;;
21780;SDS011;52576;53.614;9.894;2023-04-16T08:36:52;21.92;;;13.30;;
21780;SDS011;52576;53.614;9.894;2023-04-16T08:38:55;21.73;;;14.07;;
21780;SDS011;52576;53.614;9.894;2023-04-16T08:41:01;21.05;;;13.85;;
21780;SDS011;52576;53.614;9.894;2023-04-16T08:43:09;22.50;;;13.80;;
21780;SDS011;52576;53.614;9.894;2023-04-16T08:45:16;24.77;;;14.40;;
21780;SDS011;52576;53.614;9.894;2023-04-16T08:47:20;21.63;;;14.60;;
21780;SDS011;52576;53.614;9.894;2023-04-16T08:49:31;18.38;;;14.15;;
21780;SDS011;52576;53.614;9.894;2023-04-16T08:51:37;21.83;;;14.23;;
21780;SDS011;52576;53.614;9.894;2023-04-16T08:53:47;21.42;;;13.98;;
21780;SDS011;52576;53.614;9.894;2023-04-16T08:55:54;20.50;;;14.05;;
21780;SDS011;52576;53.614;9.894;2023-04-16T08:58:03;23.00;;;14.02;;
21780;SDS011;52576;53.614;9.894;2023-04-16T09:00:11;17.75;;;13.45;;
21780;SDS011;52576;53.614;9.894;2023-04-16T09:02:16;20.45;;;13.60;;
21780;SDS011;52576;53.614;9.894;2023-04-16T09:04:20;20.75;;;13.30;;
21780;SDS011;52576;53.614;9.894;2023-04-16T09:06:29;21.00;;;14.32;;
21780;SDS011;52576;53.614;9.894;2023-04-16T09:08:33;18.80;;;13.73;;
21780;SDS011;52576;53.614;9.894;2023-04-16T09:10:38;20.10;;;13.10;;
21780;SDS011;52576;53.614;9.894;2023-04-16T09:12:42;19.35;;;12.68;;
21780;SDS011;52576;53.614;9.894;2023-04-16T09:14:47;19.20;;;13.00;;
21780;SDS011;52576;53.614;9.894;2023-04-16T09:16:53;17.45;;;12.50;;
21780;SDS011;52576;53.614;9.894;2023-04-16T09:18:56;18.83;;;12.75;;
21780;SDS011;52576;53.614;9.894;2023-04-16T09:21:02;21.75;;;13.18;;
21780;SDS011;52576;53.614;9.894;2023-04-16T09:23:09;19.10;;;12.82;;
21780;SDS011;52576;53.614;9.894;2023-04-16T09:25:12;18.95;;;13.23;;
21780;SDS011;52576;53.614;9.894;2023-04-16T09:27:17;19.92;;;12.90;;
21780;SDS011;52576;53.614;9.894;2023-04-16T09:31:47;20.20;;;13.23;;
21780;SDS011;52576;53.614;9.894;2023-04-16T09:34:04;19.50;;;13.02;;
21780;SDS011;52576;53.614;9.894;2023-04-16T09:36:09;22.17;;;13.00;;
21780;SDS011;52576;53.614;9.894;2023-04-16T09:38:15;17.83;;;12.38;;
21780;SDS011;52576;53.614;9.894;2023-04-16T09:40:22;16.73;;;12.10;;
21780;SDS011;52576;53.614;9.894;2023-04-16T09:42:27;21.00;;;13.05;;
21780;SDS011;52576;53.614;9.894;2023-04-16T09:44:33;21.83;;;12.50;;
21780;SDS011;52576;53.614;9.894;2023-04-16T09:46:39;19.15;;;12.95;;
21780;SDS011;52576;53.614;9.894;2023-04-16T09:48:46;17.42;;;13.02;;
21780;SDS011;52576;53.614;9.894;2023-04-16T09:50:52;18.33;;;12.48;;
21780;SDS011;52576;53.614;9.894;2023-04-16T09:52:57;20.55;;;12.35;;
21780;SDS011;52576;53.614;9.894;2023-04-16T09:55:08;19.08;;;12.75;;
21780;SDS011;52576;53.614;9.894;2023-04-16T09:57:12;19.52;;;12.93;;
21780;SDS011;52576;53.614;9.894;2023-04-16T09:59:16;26.35;;;17.20;;
21780;SDS011;52576;53.614;9.894;2023-04-16T10:01:20;20.40;;;14.18;;
21780;SDS011;52576;53.614;9.894;2023-04-16T10:03:29;19.13;;;13.02;;
21780;SDS011;52576;53.614;9.894;2023-04-16T10:05:34;19.38;;;13.43;;
21780;SDS011;52576;53.614;9.894;2023-04-16T10:07:37;20.20;;;13.30;;
21780;SDS011;52576;53.614;9.894;2023-04-16T10:09:42;19.40;;;13.18;;
21780;SDS011;52576;53.614;9.894;2023-04-16T10:11:52;19.20;;;13.10;;
21780;SDS011;52576;53.614;9.894;2023-04-16T10:13:56;20.52;;;13.15;;
21780;SDS011;52576;53.614;9.894;2023-04-16T10:16:00;18.98;;;13.15;;
21780;SDS011;52576;53.614;9.894;2023-04-16T10:18:05;19.30;;;12.63;;
21780;SDS011;52576;53.614;9.894;2023-04-16T10:20:09;19.55;;;13.88;;
21780;SDS011;52576;53.614;9.894;2023-04-16T10:22:13;21.63;;;13.05;;
21780;SDS011;52576;53.614;9.894;2023-04-16T10:24:18;19.63;;;12.85;;
21780;SDS011;52576;53.614;9.894;2023-04-16T10:26:22;17.42;;;12.95;;
21780;SDS011;52576;53.614;9.894;2023-04-16T10:28:28;19.85;;;13.55;;
21780;SDS011;52576;53.614;9.894;2023-04-16T10:30:32;20.73;;;13.02;;
21780;SDS011;52576;53.614;9.894;2023-04-16T10:32:36;20.00;;;12.52;;
21780;SDS011;52576;53.614;9.894;2023-04-16T10:34:41;18.17;;;13.23;;
21780;SDS011;52576;53.614;9.894;2023-04-16T10:36:47;17.85;;;13.27;;
21780;SDS011;52576;53.614;9.894;2023-04-16T10:38:52;18.13;;;13.00;;
21780;SDS011;52576;53.614;9.894;2023-04-16T10:41:02;21.85;;;13.80;;
21780;SDS011;52576;53.614;9.894;2023-04-16T10:43:07;42.08;;;24.70;;
21780;SDS011;52576;53.614;9.894;2023-04-16T10:45:12;25.73;;;17.00;;
21780;SDS011;52576;53.614;9.894;2023-04-16T10:47:15;25.13;;;16.20;;
21780;SDS011;52576;53.614;9.894;2023-04-16T10:49:21;26.38;;;16.27;;
21780;SDS011;52576;53.614;9.894;2023-04-16T10:51:28;23.38;;;14.65;;
21780;SDS011;52576;53.614;9.894;2023-04-16T10:53:33;21.35;;;13.60;;
21780;SDS011;52576;53.614;9.894;2023-04-16T10:55:39;21.42;;;13.38;;
21780;SDS011;52576;53.614;9.894;2023-04-16T10:57:47;21.75;;;14.80;;
21780;SDS011;52576;53.614;9.894;2023-04-16T10:59:53;24.75;;;14.45;;
21780;SDS011;52576;53.614;9.894;2023-04-16T11:01:58;21.35;;;13.85;;
21780;SDS011;52576;53.614;9.894;2023-04-16T11:06:29;21.17;;;14.07;;
21780;SDS011;52576;53.614;9.894;2023-04-16T11:08:33;18.48;;;13.75;;
21780;SDS011;52576;53.614;9.894;2023-04-16T11:10:52;20.55;;;14.10;;
21780;SDS011;52576;53.614;9.894;2023-04-16T11:12:56;23.33;;;14.48;;
21780;SDS011;52576;53.614;9.894;2023-04-16T11:15:01;25.77;;;14.05;;
21780;SDS011;52576;53.614;9.894;2023-04-16T11:17:08;19.02;;;13.95;;
21780;SDS011;52576;53.614;9.894;2023-04-16T11:19:14;24.48;;;14.23;;
21780;SDS011;52576;53.614;9.894;2023-04-16T11:21:19;19.48;;;13.38;;
21780;SDS011;52576;53.614;9.894;2023-04-16T11:23:23;21.30;;;13.95;;
21780;SDS011;52576;53.614;9.894;2023-04-16T11:25:28;19.25;;;13.75;;
21780;SDS011;52576;53.614;9.894;2023-04-16T11:27:34;21.10;;;13.85;;
21780;SDS011;52576;53.614;9.894;2023-04-16T11:29:38;20.85;;;13.38;;
21780;SDS011;52576;53.614;9.894;2023-04-16T11:31:48;20.00;;;14.13;;
21780;SDS011;52576;53.614;9.894;2023-04-16T11:33:55;20.83;;;13.55;;
21780;SDS011;52576;53.614;9.894;2023-04-16T11:36:00;20.48;;;14.02;;
21780;SDS011;52576;53.614;9.894;2023-04-16T11:38:04;22.77;;;14.00;;
21780;SDS011;52576;53.614;9.894;2023-04-16T11:40:09;20.30;;;13.35;;
21780;SDS011;52576;53.614;9.894;2023-04-16T11:42:17;18.90;;;13.13;;
21780;SDS011;52576;53.614;9.894;2023-04-16T11:44:24;20.15;;;14.23;;
21780;SDS011;52576;53.614;9.894;2023-04-16T11:46:37;21.08;;;14.07;;
21780;SDS011;52576;53.614;9.894;2023-04-16T11:48:44;22.98;;;14.05;;
21780;SDS011;52576;53.614;9.894;2023-04-16T11:50:55;19.88;;;13.85;;
21780;SDS011;52576;53.614;9.894;2023-04-16T11:53:02;22.40;;;14.20;;
21780;SDS011;52576;53.614;9.894;2023-04-16T11:55:07;22.42;;;14.52;;
21780;SDS011;52576;53.614;9.894;2023-04-16T11:57:11;20.95;;;14.05;;
21780;SDS011;52576;53.614;9.894;2023-04-16T11:59:15;19.88;;;14.05;;
21780;SDS011;52576;53.614;9.894;2023-04-16T12:01:20;22.27;;;14.02;;
21780;SDS011;52576;53.614;9.894;2023-04-16T12:03:36;23.60;;;14.13;;
21780;SDS011;52576;53.614;9.894;2023-04-16T12:05:42;22.25;;;14.43;;
21780;SDS011;52576;53.614;9.894;2023-04-16T12:07:47;22.70;;;14.57;;
21780;SDS011;52576;53.614;9.894;2023-04-16T12:10:02;21.67;;;14.70;;
21780;SDS011;52576;53.614;9.894;2023-04-16T12:14:32;22.23;;;14.95;;
21780;SDS011;52576;53.614;9.894;2023-04-16T12:16:35;23.52;;;14.88;;